Latest Weather Observations for High Range (Wanganderry)

IDN60801

Issued at 10:32 pm EST Wednesday 2 September 2015 (issued every 30 minutes, with the page automatically refreshed every 10 minutes)

About weather observations | Map of weather stations | Latest weather observations for NSW | Other Formats
Station Details ID: 068262 Name: HIGH RANGE AWS (WANGANDERRY) Lat: -34.33 Lon: 150.27 Height: 813.6 m
Data from the previous 72 hours. | See also: Recent months for locations in New South Wales
Date/Time
EST
Temp
°C
App
Temp
°C
Dew
Point
Rel
Hum
%
Delta-T
°C
Wind Press
QNH
hPa
Press
MSL
hPa
Rain
since 9 am
mm
Dir
 
Spd
km/h
Gust
km/h
Spd
kts
Gust
kts
02/10:30pm 8.1 3.4 3.4 72 2.1 NE 17 22 9 12 1008.9 1007.9 0.0
02/10:00pm 8.4 3.3 3.3 70 2.3 NE 19 22 10 12 1009.1 1008.0 0.0
02/09:30pm 8.1 3.0 2.8 69 2.3 NE 19 24 10 13 1009.5 1008.5 0.0
02/09:00pm 8.5 3.0 1.9 63 2.9 NE 20 24 11 13 1009.5 1008.5 0.0
02/08:30pm 8.7 3.4 2.1 63 2.9 NE 19 22 10 12 1010.3 1009.4 0.0
02/08:00pm 8.1 2.6 1.9 65 2.7 NNE 20 24 11 13 1010.5 1009.5 0.0
02/07:30pm 8.4 3.8 1.6 62 2.9 NE 15 17 8 9 1011.0 1010.0 0.0
02/07:00pm 7.8 4.0 1.9 66 2.6 NNE 11 13 6 7 1011.4 1010.5 0.0
02/06:30pm 8.5 3.9 1.6 62 3.0 NE 15 17 8 9 1011.4 1010.5 0.0
02/06:00pm 8.8 5.5 2.6 65 2.8 NE 9 11 5 6 1011.6 1010.7 0.0
02/05:30pm 9.9 6.7 3.0 62 3.1 NNE 9 13 5 7 1011.6 1010.7 0.0
02/05:00pm 11.5 6.7 2.8 55 4.0 NNE 17 20 9 11 1011.5 1010.6 0.0
02/04:30pm 12.7 8.2 2.0 48 4.9 NE 15 20 8 11 1011.8 1010.8 0.0
02/04:00pm 13.3 8.0 -0.3 39 5.9 NNE 17 22 9 12 1011.9 1010.9 0.0
02/03:30pm 13.9 9.4 2.2 45 5.4 NE 15 19 8 10 1011.8 1010.8 0.0
02/03:00pm 13.8 9.6 1.5 43 5.6 NE 13 17 7 9 1011.9 1010.9 0.0
02/02:30pm 14.2 9.9 0.8 40 6.0 NE 13 19 7 10 1012.1 1011.1 0.0
02/02:00pm 14.6 10.0 1.5 41 6.0 NNE 15 20 8 11 1012.5 1011.6 0.0
02/01:30pm 14.0 10.0 0.3 39 6.1 NE 11 17 6 9 1013.1 1012.1 0.0
02/01:00pm 13.7 10.1 0.4 40 5.9 NE 9 13 5 7 1013.5 1012.6 0.0
02/12:30pm 13.3 10.0 2.2 47 5.1 ENE 9 15 5 8 1014.0 1013.1 0.0
02/12:00pm 12.7 8.5 -0.9 39 5.8 NE 11 17 6 9 1014.7 1013.8 0.0
02/11:30am 11.9 7.3 -1.3 40 5.5 NNE 13 19 7 10 1015.3 1014.4 0.0
02/11:00am 11.4 6.9 -0.4 44 5.0 NNE 13 17 7 9 1016.0 1015.1 0.0
02/10:30am 10.2 5.7 0.0 49 4.3 NE 13 15 7 8 1016.3 1015.4 0.0
02/10:00am 10.3 6.4 -1.7 43 4.9 NNE 9 13 5 7 1016.7 1015.9 0.0
02/09:30am 10.3 5.7 -4.5 35 5.7 N 11 13 6 7 1016.9 1016.1 0.0
02/09:00am 9.0 5.5 -1.7 47 4.3 N 7 11 4 6 1017.1 1016.2 0.0
02/08:30am 6.6 3.3 2.7 76 1.7 NNE 9 13 5 7 1017.1 1016.2 0.0
02/08:00am 7.8 3.8 -2.2 49 3.9 NNW 9 15 5 8 1016.7 1015.9 0.0
02/07:30am 6.1 2.3 1.6 73 1.9 WNW 11 15 6 8 1016.6 1015.7 0.0
02/07:00am 4.9 1.8 1.6 79 1.4 W 7 9 4 5 1016.4 1015.5 0.0
02/06:30am 3.4 -0.5 1.3 86 0.9 W 11 13 6 7 1016.3 1015.4 0.0
02/06:00am 3.2 -1.8 1.3 87 0.8 W 17 19 9 10 1016.1 1015.2 0.0
02/05:30am 3.0 -2.4 1.2 88 0.7 W 19 20 10 11 1015.8 1014.9 0.0
02/05:00am 3.5 -2.1 1.4 86 0.9 WSW 20 20 11 11 1015.4 1014.5 0.0
02/04:30am 3.5 -2.1 1.1 84 1.0 WSW 20 24 11 13 1015.2 1014.3 0.0
02/04:00am 3.4 -2.6 1.3 86 0.9 WSW 22 26 12 14 1015.3 1014.4 0.0
02/03:30am 3.6 -1.9 2.0 89 0.7 W 20 24 11 13 1015.8 1014.9 0.0
02/03:00am 3.1 -2.8 1.5 89 0.7 W 22 24 12 13 1015.9 1015.0 0.0
02/02:30am 3.9 -2.3 1.9 87 0.8 W 24 26 13 14 1016.0 1015.1 0.0
02/02:00am 3.7 -1.6 1.7 87 0.8 W 19 22 10 12 1016.2 1015.3 0.0
02/01:30am 3.8 -2.1 1.7 86 0.9 W 22 24 12 13 1016.1 1015.2 0.0
02/01:00am 4.1 -1.8 1.5 83 1.1 W 22 26 12 14 1016.3 1015.4 0.0
02/12:30am 4.0 -1.4 1.0 81 1.2 W 19 19 10 10 1016.3 1015.4 0.0
02/12:00am 4.0 -1.0 1.2 82 1.1 W 17 19 9 10 1016.3 1015.4 0.0
 
Date/Time
EST
Temp
°C
App
Temp
°C
Dew
Point
Rel
Hum
%
Delta-T
°C
Wind Press
QNH
hPa
Press
MSL
hPa
Rain
since 9 am
mm
Dir
 
Spd
km/h
Gust
km/h
Spd
kts
Gust
kts
01/11:30pm 3.9 -1.2 0.9 81 1.2 W 17 20 9 11 1016.2 1015.3 0.0
01/11:00pm 4.2 -0.1 0.9 79 1.3 W 13 15 7 8 1016.0 1015.1 0.0
01/10:30pm 4.4 0.8 0.7 77 1.5 W 9 13 5 7 1016.1 1015.2 0.0
01/10:00pm 5.1 1.2 1.2 76 1.6 W 11 17 6 9 1016.1 1015.2 0.0
01/09:30pm 4.8 0.1 0.9 76 1.6 W 15 19 8 10 1015.8 1014.9 0.0
01/09:00pm 5.6 -0.8 0.8 71 2.0 WSW 24 30 13 16 1015.5 1014.6 0.0
01/08:30pm 5.8 -0.6 1.0 71 2.0 WSW 24 28 13 15 1015.2 1014.3 0.0
01/08:00pm 5.8 0.2 1.0 71 2.0 WSW 20 24 11 13 1014.9 1014.0 0.0
01/07:30pm 6.8 0.8 0.9 66 2.5 W 22 28 12 15 1014.8 1013.9 0.0
01/07:00pm 7.2 0.4 0.9 64 2.6 W 26 32 14 17 1014.6 1013.7 0.0
01/06:30pm 6.7 1.1 0.2 63 2.7 WSW 19 26 10 14 1014.5 1013.5 0.0
01/06:00pm 7.9 2.7 0.2 58 3.2 WSW 17 24 9 13 1014.1 1013.2 0.0
01/05:30pm 8.7 3.1 -0.1 54 3.7 W 19 28 10 15 1013.9 1013.0 0.0
01/05:00pm 9.8 4.0 -0.1 50 4.2 W 20 26 11 14 1013.8 1012.9 0.0
01/04:30pm 10.6 4.0 -0.2 47 4.6 WSW 24 32 13 17 1013.8 1012.9 0.0
01/04:00pm 11.3 4.7 -0.5 44 5.0 WSW 24 33 13 18 1013.7 1012.8 0.0
01/03:30pm 12.3 6.8 0.4 44 5.2 WSW 19 28 10 15 1013.6 1012.7 0.0
01/03:00pm 12.2 5.5 -1.0 40 5.6 WSW 24 33 13 18 1013.6 1012.7 0.0
01/02:30pm 12.3 5.6 -1.2 39 5.7 W 24 37 13 20 1013.6 1012.7 0.0
01/02:00pm 12.4 6.3 0.2 43 5.3 W 22 33 12 18 1013.5 1012.6 0.0
01/01:30pm 11.7 6.0 -0.4 43 5.2 W 19 30 10 16 1013.6 1012.7 0.0
01/01:00pm 12.1 6.6 0.5 45 5.1 WSW 19 30 10 16 1013.7 1012.8 0.0
01/12:30pm 11.8 5.8 1.2 48 4.7 WSW 22 30 12 16 1014.0 1013.1 0.0
01/12:00pm 11.2 4.4 0.9 49 4.5 W 26 35 14 19 1014.5 1013.5 0.0
01/11:30am 11.1 4.8 1.6 52 4.2 W 24 33 13 18 1014.8 1013.9 0.0
01/11:00am 9.8 3.4 0.7 53 3.9 WSW 24 32 13 17 1014.8 1013.9 0.0
01/10:30am 8.8 2.3 0.5 56 3.5 WSW 24 32 13 17 1014.9 1014.0 0.0
01/10:00am 7.8 1.0 0.8 61 3.0 WSW 26 33 14 18 1014.7 1013.8 0.0
01/09:30am 6.8 -0.3 1.1 67 2.4 WSW 28 37 15 20 1014.9 1015.0 0.0
01/09:00am 5.7 -1.1 0.9 71 2.0 SW 26 35 14 19 1014.9 1015.0 0.0
01/08:30am 4.9 -2.2 1.2 77 1.5 WSW 28 35 15 19 1014.8 1014.9 0.0
01/08:00am 4.2 -2.5 1.2 81 1.2 SW 26 33 14 18 1014.5 1014.6 0.0
01/07:30am 3.5 -2.9 0.9 83 1.1 WSW 24 33 13 18 1014.6 1014.7 0.0
01/07:00am 2.8 -4.0 0.5 85 0.9 WSW 26 30 14 16 1014.4 1014.5 0.0
01/06:30am 2.6 -5.0 0.5 86 0.8 WSW 30 39 16 21 1014.1 1014.3 0.0
01/06:00am 2.6 -4.6 0.5 86 0.8 WSW 28 35 15 19 1013.9 1014.0 0.0
01/05:30am 2.9 -4.7 0.8 86 0.8 W 30 39 16 21 1013.7 1013.8 0.0
01/05:00am 3.2 -4.9 1.1 86 0.9 W 33 43 18 23 1013.5 1013.6 0.0
01/04:30am 3.2 -4.7 1.1 86 0.9 W 32 39 17 21 1013.5 1013.6 0.0
01/04:00am 3.4 -4.1 1.3 86 0.9 W 30 37 16 20 1013.6 1013.7 0.0
01/03:30am 3.6 -4.4 1.5 86 0.9 W 33 41 18 22 1013.7 1013.8 0.0
01/03:00am 3.7 -4.1 1.7 87 0.8 W 32 39 17 21 1013.8 1013.9 0.0
01/02:30am 4.0 -3.0 1.9 86 0.9 W 28 35 15 19 1014.0 1014.2 0.0
01/02:00am 3.9 -2.0 1.9 87 0.8 W 22 30 12 16 1014.5 1014.6 0.0
01/01:30am 3.9 -1.6 1.8 86 0.9 WSW 20 26 11 14 1015.0 1015.1 0.0
01/01:00am 4.1 -1.8 1.6 84 1.0 WSW 22 28 12 15 1015.1 1015.3 0.0
01/12:30am 4.3 -1.3 1.3 81 1.2 W 20 24 11 13 1015.4 1015.6 0.0
01/12:00am 5.1 -1.2 1.8 79 1.4 WNW 24 33 13 18 1015.3 1015.5 0.0
 
Date/Time
EST
Temp
°C
App
Temp
°C
Dew
Point
Rel
Hum
%
Delta-T
°C
Wind Press
QNH
hPa
Press
MSL
hPa
Rain
since 9 am
mm
Dir
 
Spd
km/h
Gust
km/h
Spd
kts
Gust
kts
31/11:30pm 5.4 -1.2 1.9 78 1.5 WNW 26 32 14 17 1015.4 1015.6 0.0
31/11:00pm 5.3 -0.2 1.6 77 1.6 WNW 20 26 11 14 1015.7 1015.8 0.0
31/10:30pm 5.2 -0.7 1.7 78 1.5 W 22 24 12 13 1015.7 1015.8 0.0
31/10:00pm 5.5 -0.4 1.6 76 1.6 W 22 30 12 16 1016.0 1016.1 0.0
31/09:30pm 5.7 0.2 1.8 76 1.7 W 20 26 11 14 1016.0 1016.1 0.0
31/09:00pm 5.9 0.7 2.2 77 1.6 W 19 24 10 13 1015.8 1015.9 0.0
31/08:30pm 6.0 0.7 1.9 75 1.7 W 19 22 10 12 1015.7 1015.8 0.0
31/08:00pm 6.4 0.9 1.9 73 1.9 WSW 20 26 11 14 1015.5 1015.7 0.0
31/07:30pm 6.8 1.3 1.7 70 2.2 WSW 20 26 11 14 1015.3 1015.5 0.0
31/07:00pm 7.0 1.6 1.5 68 2.3 WSW 19 24 10 13 1015.0 1015.1 0.0
31/06:30pm 7.3 1.9 1.4 66 2.5 W 19 24 10 13 1014.9 1015.0 0.0
31/06:00pm 7.4 2.4 1.3 65 2.6 W 17 22 9 12 1014.9 1015.0 0.0
31/05:30pm 8.9 2.9 1.1 58 3.3 W 22 28 12 15 1014.6 1014.7 0.0
31/05:00pm 9.3 3.9 1.0 56 3.6 WSW 19 26 10 14 1014.5 1014.6 0.0
31/04:30pm 9.4 3.7 0.6 54 3.8 WSW 20 26 11 14 1014.2 1014.4 0.0
31/04:00pm 11.3 4.9 0.7 48 4.6 W 24 33 13 18 1014.1 1014.3 0.0
31/03:30pm 11.7 6.4 1.9 51 4.4 WSW 19 30 10 16 1014.1 1014.3 0.0
31/03:00pm 12.0 6.0 0.8 46 4.9 W 22 30 12 16 1014.1 1014.3 0.0
31/02:30pm 12.2 6.2 1.2 47 4.9 WSW 22 30 12 16 1014.4 1014.5 0.0
31/02:00pm 12.0 5.9 2.5 52 4.3 SW 24 33 13 18 1014.5 1014.6 0.0
31/01:30pm 10.8 5.0 0.2 48 4.5 SW 20 30 11 16 1014.7 1014.8 0.0
31/01:00pm 11.3 4.7 -0.5 44 5.0 WSW 24 32 13 17 1015.0 1015.1 0.0
31/12:30pm 11.4 5.6 0.2 46 4.8 SW 20 30 11 16 1015.4 1015.6 0.0
31/12:00pm 10.8 4.3 0.5 49 4.4 WSW 24 33 13 18 1015.5 1015.7 0.0
31/11:30am 10.4 3.9 0.2 49 4.4 WSW 24 37 13 20 1016.0 1016.1 0.0
31/11:00am 10.2 4.0 2.3 58 3.5 WSW 24 35 13 19 1016.3 1016.5 0.0
31/10:30am 8.8 2.1 1.2 59 3.3 WSW 26 37 14 20 1016.5 1016.7 0.0
31/10:00am 8.4 2.2 2.4 66 2.6 WSW 24 33 13 18 1016.7 1016.9 0.0
31/09:30am 7.6 2.1 1.7 66 2.5 WSW 20 26 11 14 1016.8 1017.0 0.0
31/09:00am 6.7 1.6 2.8 76 1.7 SW 19 24 10 13 1016.8 1017.0 0.0
31/08:30am 5.6 0.7 1.9 77 1.6 WSW 17 20 9 11 1016.7 1016.9 0.0
31/08:00am 4.7 -1.2 1.9 82 1.2 SW 22 28 12 15 1016.7 1016.9 0.0
31/07:30am 3.8 -1.4 2.3 90 0.6 SW 19 22 10 12 1016.7 1016.9 0.0
31/07:00am 2.9 -1.6 2.0 94 0.4 SW 15 17 8 9 1016.6 1016.8 0.0
31/06:30am 2.7 -1.5 1.8 94 0.4 W 13 19 7 10 1016.4 1016.6 0.0
31/06:00am 3.4 -1.1 2.4 93 0.4 WSW 15 19 8 10 1016.3 1016.5 0.0
31/05:30am 3.8 -0.5 3.2 96 0.3 WSW 15 17 8 9 1016.2 1016.4 0.0
31/05:00am 3.9 -0.8 2.9 93 0.4 SW 17 19 9 10 1016.1 1016.2 0.0
31/04:30am 4.3 -0.8 3.0 91 0.6 WSW 19 20 10 11 1016.0 1016.1 0.0
31/04:00am 4.6 -0.1 2.9 89 0.7 WSW 17 19 9 10 1016.2 1016.4 0.0
31/03:30am 4.3 -0.6 2.2 86 0.9 WSW 17 20 9 11 1016.4 1016.6 0.0
31/03:00am 4.8 0.4 2.8 87 0.9 SW 15 19 8 10 1016.7 1016.9 0.0
31/02:30am 5.3 1.0 3.5 88 0.8 SSW 15 19 8 10 1017.1 1017.2 0.0
31/02:00am 5.6 1.0 3.9 89 0.8 SW 17 22 9 12 1017.4 1017.6 0.0
31/01:30am 5.9 1.9 5.0 94 0.4 WSW 15 17 8 9 1017.9 1018.1 0.0
31/01:00am 6.0 1.7 5.1 94 0.4 W 17 24 9 13 1018.1 1018.3 0.0
31/12:30am 5.9 2.0 5.3 96 0.3 W 15 17 8 9 1018.4 1018.6 0.0
31/12:00am 5.8 2.2 5.2 96 0.3 WSW 13 15 7 8 1018.4 1018.6 0.0
 
Date/Time
EST
Temp
°C
App
Temp
°C
Dew
Point
Rel
Hum
%
Delta-T
°C
Wind Press
QNH
hPa
Press
MSL
hPa
Rain
since 9 am
mm
Dir
 
Spd
km/h
Gust
km/h
Spd
kts
Gust
kts
30/11:30pm 5.9 2.3 5.2 95 0.3 W 13 17 7 9 1018.5 1018.7 0.0
30/11:00pm 5.5 1.1 4.9 96 0.3 SW 17 19 9 10 1018.5 1018.7 0.0

Other Formats:

Comma delimited format used in spreadsheet applications
http://www.bom.gov.au/fwo/IDN60801/IDN60801.99742.axf

JavaScript Object Notation format (JSON) in row-major order
http://www.bom.gov.au/fwo/IDN60801/IDN60801.99742.json